sensor_id;sensor_type;location;lat;lon;timestamp;P1;durP1;ratioP1;P2;durP2;ratioP2
40284;SDS011;25997;50.214;19.354;2023-07-20T00:00:58;9.23;;;5.88;;
40284;SDS011;25997;50.214;19.354;2023-07-20T00:04:02;8.20;;;6.35;;
40284;SDS011;25997;50.214;19.354;2023-07-20T00:07:05;9.18;;;5.85;;
40284;SDS011;25997;50.214;19.354;2023-07-20T00:10:08;9.18;;;5.70;;
40284;SDS011;25997;50.214;19.354;2023-07-20T00:13:11;8.18;;;6.47;;
40284;SDS011;25997;50.214;19.354;2023-07-20T00:16:13;14.88;;;7.47;;
40284;SDS011;25997;50.214;19.354;2023-07-20T00:19:17;9.77;;;6.50;;
40284;SDS011;25997;50.214;19.354;2023-07-20T00:22:20;6.68;;;5.82;;
40284;SDS011;25997;50.214;19.354;2023-07-20T00:25:22;8.52;;;6.82;;
40284;SDS011;25997;50.214;19.354;2023-07-20T00:28:24;8.30;;;6.55;;
40284;SDS011;25997;50.214;19.354;2023-07-20T00:31:27;8.77;;;6.40;;
40284;SDS011;25997;50.214;19.354;2023-07-20T00:34:32;12.48;;;6.32;;
40284;SDS011;25997;50.214;19.354;2023-07-20T00:37:34;7.57;;;6.35;;
40284;SDS011;25997;50.214;19.354;2023-07-20T00:40:37;8.40;;;6.38;;
40284;SDS011;25997;50.214;19.354;2023-07-20T00:43:39;7.82;;;5.95;;
40284;SDS011;25997;50.214;19.354;2023-07-20T00:46:42;7.30;;;5.93;;
40284;SDS011;25997;50.214;19.354;2023-07-20T00:49:46;8.15;;;5.03;;
40284;SDS011;25997;50.214;19.354;2023-07-20T00:52:49;7.60;;;5.25;;
40284;SDS011;25997;50.214;19.354;2023-07-20T00:55:53;9.18;;;5.95;;
40284;SDS011;25997;50.214;19.354;2023-07-20T00:58:55;10.65;;;5.90;;
40284;SDS011;25997;50.214;19.354;2023-07-20T01:01:58;12.57;;;4.97;;
40284;SDS011;25997;50.214;19.354;2023-07-20T01:05:02;8.88;;;5.03;;
40284;SDS011;25997;50.214;19.354;2023-07-20T01:08:07;4.88;;;3.72;;
40284;SDS011;25997;50.214;19.354;2023-07-20T01:11:20;12.35;;;4.63;;
40284;SDS011;25997;50.214;19.354;2023-07-20T01:14:30;6.85;;;3.70;;
40284;SDS011;25997;50.214;19.354;2023-07-20T01:17:33;5.00;;;3.47;;
40284;SDS011;25997;50.214;19.354;2023-07-20T01:20:37;4.93;;;3.63;;
40284;SDS011;25997;50.214;19.354;2023-07-20T01:23:55;6.70;;;3.33;;
40284;SDS011;25997;50.214;19.354;2023-07-20T01:30:52;6.55;;;3.20;;
40284;SDS011;25997;50.214;19.354;2023-07-20T01:34:06;7.05;;;3.78;;
40284;SDS011;25997;50.214;19.354;2023-07-20T01:37:13;6.18;;;3.33;;
40284;SDS011;25997;50.214;19.354;2023-07-20T01:40:19;5.93;;;2.67;;
40284;SDS011;25997;50.214;19.354;2023-07-20T01:43:27;5.45;;;3.67;;
40284;SDS011;25997;50.214;19.354;2023-07-20T01:46:29;6.53;;;2.72;;
40284;SDS011;25997;50.214;19.354;2023-07-20T01:49:34;4.45;;;3.47;;
40284;SDS011;25997;50.214;19.354;2023-07-20T01:52:36;5.32;;;3.33;;
40284;SDS011;25997;50.214;19.354;2023-07-20T01:55:38;4.45;;;2.95;;
40284;SDS011;25997;50.214;19.354;2023-07-20T01:58:41;6.78;;;3.40;;
40284;SDS011;25997;50.214;19.354;2023-07-20T02:01:43;4.57;;;3.05;;
40284;SDS011;25997;50.214;19.354;2023-07-20T02:04:47;3.95;;;3.28;;
40284;SDS011;25997;50.214;19.354;2023-07-20T02:07:50;7.28;;;3.15;;
40284;SDS011;25997;50.214;19.354;2023-07-20T02:10:54;4.45;;;3.40;;
40284;SDS011;25997;50.214;19.354;2023-07-20T02:13:56;5.90;;;3.38;;
40284;SDS011;25997;50.214;19.354;2023-07-20T02:16:59;5.28;;;3.65;;
40284;SDS011;25997;50.214;19.354;2023-07-20T02:20:05;5.32;;;3.08;;
40284;SDS011;25997;50.214;19.354;2023-07-20T02:23:09;4.22;;;3.00;;
40284;SDS011;25997;50.214;19.354;2023-07-20T02:26:12;6.57;;;4.82;;
40284;SDS011;25997;50.214;19.354;2023-07-20T02:29:14;6.97;;;5.05;;
40284;SDS011;25997;50.214;19.354;2023-07-20T02:32:17;7.22;;;6.50;;
40284;SDS011;25997;50.214;19.354;2023-07-20T02:35:21;5.35;;;4.57;;
40284;SDS011;25997;50.214;19.354;2023-07-20T02:38:23;6.03;;;3.92;;
40284;SDS011;25997;50.214;19.354;2023-07-20T02:41:25;6.32;;;4.10;;
40284;SDS011;25997;50.214;19.354;2023-07-20T02:44:28;6.90;;;4.00;;
40284;SDS011;25997;50.214;19.354;2023-07-20T02:47:30;6.65;;;4.15;;
40284;SDS011;25997;50.214;19.354;2023-07-20T02:50:35;4.47;;;3.88;;
40284;SDS011;25997;50.214;19.354;2023-07-20T02:53:37;4.88;;;3.53;;
40284;SDS011;25997;50.214;19.354;2023-07-20T02:56:40;7.50;;;3.95;;
40284;SDS011;25997;50.214;19.354;2023-07-20T02:59:42;9.43;;;3.83;;
40284;SDS011;25997;50.214;19.354;2023-07-20T03:02:45;6.85;;;3.33;;
40284;SDS011;25997;50.214;19.354;2023-07-20T03:05:49;5.55;;;3.78;;
40284;SDS011;25997;50.214;19.354;2023-07-20T03:08:55;5.47;;;3.53;;
40284;SDS011;25997;50.214;19.354;2023-07-20T03:11:58;5.28;;;3.47;;
40284;SDS011;25997;50.214;19.354;2023-07-20T03:15:01;6.38;;;3.28;;
40284;SDS011;25997;50.214;19.354;2023-07-20T03:18:04;6.30;;;3.40;;
40284;SDS011;25997;50.214;19.354;2023-07-20T03:21:08;5.00;;;3.78;;
40284;SDS011;25997;50.214;19.354;2023-07-20T03:24:12;5.78;;;4.53;;
40284;SDS011;25997;50.214;19.354;2023-07-20T03:27:14;4.70;;;3.40;;
40284;SDS011;25997;50.214;19.354;2023-07-20T03:30:17;4.40;;;3.50;;
40284;SDS011;25997;50.214;19.354;2023-07-20T03:33:19;4.45;;;3.10;;
40284;SDS011;25997;50.214;19.354;2023-07-20T03:36:23;5.50;;;3.40;;
40284;SDS011;25997;50.214;19.354;2023-07-20T03:39:25;5.85;;;3.40;;
40284;SDS011;25997;50.214;19.354;2023-07-20T03:42:28;5.32;;;3.15;;
40284;SDS011;25997;50.214;19.354;2023-07-20T03:45:30;6.13;;;3.65;;
40284;SDS011;25997;50.214;19.354;2023-07-20T03:48:33;5.82;;;3.38;;
40284;SDS011;25997;50.214;19.354;2023-07-20T03:51:37;4.53;;;3.33;;
40284;SDS011;25997;50.214;19.354;2023-07-20T03:54:39;5.50;;;3.20;;
40284;SDS011;25997;50.214;19.354;2023-07-20T03:57:42;4.97;;;3.35;;
40284;SDS011;25997;50.214;19.354;2023-07-20T04:00:45;5.88;;;3.42;;
40284;SDS011;25997;50.214;19.354;2023-07-20T04:03:48;5.70;;;3.22;;
40284;SDS011;25997;50.214;19.354;2023-07-20T04:06:52;4.82;;;3.20;;
40284;SDS011;25997;50.214;19.354;2023-07-20T04:09:54;5.53;;;3.15;;
40284;SDS011;25997;50.214;19.354;2023-07-20T04:12:57;10.40;;;3.88;;
40284;SDS011;25997;50.214;19.354;2023-07-20T04:15:59;8.13;;;3.58;;
40284;SDS011;25997;50.214;19.354;2023-07-20T04:19:03;4.47;;;2.90;;
40284;SDS011;25997;50.214;19.354;2023-07-20T04:22:07;5.97;;;3.80;;
40284;SDS011;25997;50.214;19.354;2023-07-20T04:25:09;5.18;;;3.92;;
40284;SDS011;25997;50.214;19.354;2023-07-20T04:28:12;5.15;;;3.58;;
40284;SDS011;25997;50.214;19.354;2023-07-20T04:31:20;5.90;;;3.58;;
40284;SDS011;25997;50.214;19.354;2023-07-20T04:34:22;6.47;;;3.80;;
40284;SDS011;25997;50.214;19.354;2023-07-20T04:37:26;5.57;;;4.03;;
40284;SDS011;25997;50.214;19.354;2023-07-20T04:40:28;4.35;;;3.53;;
40284;SDS011;25997;50.214;19.354;2023-07-20T04:43:31;4.97;;;3.42;;
40284;SDS011;25997;50.214;19.354;2023-07-20T04:46:33;5.10;;;3.85;;
40284;SDS011;25997;50.214;19.354;2023-07-20T04:49:37;6.53;;;3.63;;
40284;SDS011;25997;50.214;19.354;2023-07-20T04:52:41;5.22;;;4.07;;
40284;SDS011;25997;50.214;19.354;2023-07-20T04:55:48;7.13;;;4.70;;
40284;SDS011;25997;50.214;19.354;2023-07-20T04:58:56;7.43;;;4.07;;
40284;SDS011;25997;50.214;19.354;2023-07-20T05:01:59;6.80;;;4.53;;
40284;SDS011;25997;50.214;19.354;2023-07-20T05:05:02;7.72;;;4.68;;
40284;SDS011;25997;50.214;19.354;2023-07-20T05:08:09;5.25;;;4.30;;
40284;SDS011;25997;50.214;19.354;2023-07-20T05:11:11;8.40;;;4.05;;
40284;SDS011;25997;50.214;19.354;2023-07-20T05:14:14;4.95;;;3.85;;
40284;SDS011;25997;50.214;19.354;2023-07-20T05:17:17;4.95;;;3.80;;
40284;SDS011;25997;50.214;19.354;2023-07-20T05:20:19;5.53;;;4.25;;
40284;SDS011;25997;50.214;19.354;2023-07-20T05:23:23;9.15;;;3.92;;
40284;SDS011;25997;50.214;19.354;2023-07-20T05:26:26;9.18;;;4.60;;
40284;SDS011;25997;50.214;19.354;2023-07-20T05:29:28;7.70;;;4.25;;
40284;SDS011;25997;50.214;19.354;2023-07-20T05:32:31;6.05;;;4.13;;
40284;SDS011;25997;50.214;19.354;2023-07-20T05:35:33;5.55;;;4.10;;
40284;SDS011;25997;50.214;19.354;2023-07-20T05:38:39;5.55;;;3.83;;
40284;SDS011;25997;50.214;19.354;2023-07-20T05:41:41;4.95;;;3.63;;
40284;SDS011;25997;50.214;19.354;2023-07-20T05:44:44;8.85;;;4.40;;
40284;SDS011;25997;50.214;19.354;2023-07-20T05:47:48;12.15;;;4.20;;
40284;SDS011;25997;50.214;19.354;2023-07-20T05:50:50;6.60;;;4.72;;
40284;SDS011;25997;50.214;19.354;2023-07-20T05:53:54;8.02;;;4.47;;
40284;SDS011;25997;50.214;19.354;2023-07-20T05:56:56;6.22;;;4.25;;
40284;SDS011;25997;50.214;19.354;2023-07-20T05:59:59;7.07;;;4.60;;
40284;SDS011;25997;50.214;19.354;2023-07-20T06:03:01;9.85;;;4.40;;
40284;SDS011;25997;50.214;19.354;2023-07-20T06:06:04;7.40;;;4.40;;
40284;SDS011;25997;50.214;19.354;2023-07-20T06:09:08;6.85;;;4.38;;
40284;SDS011;25997;50.214;19.354;2023-07-20T06:12:12;7.57;;;4.72;;
40284;SDS011;25997;50.214;19.354;2023-07-20T06:15:24;6.22;;;4.57;;
40284;SDS011;25997;50.214;19.354;2023-07-20T06:18:27;6.53;;;4.50;;
40284;SDS011;25997;50.214;19.354;2023-07-20T06:21:30;6.60;;;4.65;;
40284;SDS011;25997;50.214;19.354;2023-07-20T06:24:34;8.35;;;4.18;;
40284;SDS011;25997;50.214;19.354;2023-07-20T06:27:37;6.47;;;4.30;;
40284;SDS011;25997;50.214;19.354;2023-07-20T06:30:39;6.10;;;3.88;;
40284;SDS011;25997;50.214;19.354;2023-07-20T06:33:42;6.65;;;4.03;;
40284;SDS011;25997;50.214;19.354;2023-07-20T06:36:44;8.57;;;4.30;;
40284;SDS011;25997;50.214;19.354;2023-07-20T06:39:48;5.78;;;3.83;;
40284;SDS011;25997;50.214;19.354;2023-07-20T06:42:50;6.85;;;3.78;;
40284;SDS011;25997;50.214;19.354;2023-07-20T06:45:52;9.23;;;3.67;;
40284;SDS011;25997;50.214;19.354;2023-07-20T06:48:55;5.53;;;4.03;;
40284;SDS011;25997;50.214;19.354;2023-07-20T06:51:58;10.38;;;3.78;;
40284;SDS011;25997;50.214;19.354;2023-07-20T06:55:02;8.00;;;3.55;;
40284;SDS011;25997;50.214;19.354;2023-07-20T06:58:04;5.57;;;3.42;;
40284;SDS011;25997;50.214;19.354;2023-07-20T07:01:07;5.68;;;3.92;;
40284;SDS011;25997;50.214;19.354;2023-07-20T07:04:10;7.32;;;3.72;;
40284;SDS011;25997;50.214;19.354;2023-07-20T07:07:13;5.85;;;3.33;;
40284;SDS011;25997;50.214;19.354;2023-07-20T07:10:17;5.00;;;2.90;;
40284;SDS011;25997;50.214;19.354;2023-07-20T07:13:19;5.03;;;3.47;;
40284;SDS011;25997;50.214;19.354;2023-07-20T07:16:22;5.85;;;3.30;;
40284;SDS011;25997;50.214;19.354;2023-07-20T07:19:24;4.68;;;3.58;;
40284;SDS011;25997;50.214;19.354;2023-07-20T07:22:27;4.03;;;2.78;;
40284;SDS011;25997;50.214;19.354;2023-07-20T07:25:31;7.07;;;3.20;;
40284;SDS011;25997;50.214;19.354;2023-07-20T07:28:34;7.78;;;4.53;;
40284;SDS011;25997;50.214;19.354;2023-07-20T07:31:36;4.68;;;3.30;;
40284;SDS011;25997;50.214;19.354;2023-07-20T07:34:39;5.70;;;2.97;;
40284;SDS011;25997;50.214;19.354;2023-07-20T07:37:41;7.20;;;2.95;;
40284;SDS011;25997;50.214;19.354;2023-07-20T07:40:45;4.22;;;3.03;;
40284;SDS011;25997;50.214;19.354;2023-07-20T07:43:48;10.93;;;8.65;;
40284;SDS011;25997;50.214;19.354;2023-07-20T07:46:50;4.93;;;3.08;;
40284;SDS011;25997;50.214;19.354;2023-07-20T07:49:53;6.53;;;3.10;;
40284;SDS011;25997;50.214;19.354;2023-07-20T07:52:56;5.95;;;3.10;;
40284;SDS011;25997;50.214;19.354;2023-07-20T07:56:00;4.47;;;3.25;;
40284;SDS011;25997;50.214;19.354;2023-07-20T07:59:03;3.58;;;2.83;;
40284;SDS011;25997;50.214;19.354;2023-07-20T08:02:06;3.17;;;2.05;;
40284;SDS011;25997;50.214;19.354;2023-07-20T08:05:08;5.22;;;3.30;;
40284;SDS011;25997;50.214;19.354;2023-07-20T08:08:11;6.55;;;3.25;;
40284;SDS011;25997;50.214;19.354;2023-07-20T08:11:14;3.58;;;2.60;;
40284;SDS011;25997;50.214;19.354;2023-07-20T08:14:18;4.57;;;2.90;;
40284;SDS011;25997;50.214;19.354;2023-07-20T08:17:20;4.28;;;2.92;;
40284;SDS011;25997;50.214;19.354;2023-07-20T08:20:23;3.67;;;2.20;;
40284;SDS011;25997;50.214;19.354;2023-07-20T08:23:27;3.85;;;2.78;;
40284;SDS011;25997;50.214;19.354;2023-07-20T08:26:31;3.20;;;2.40;;
40284;SDS011;25997;50.214;19.354;2023-07-20T08:29:33;3.80;;;2.28;;
40284;SDS011;25997;50.214;19.354;2023-07-20T08:32:36;8.80;;;4.60;;
40284;SDS011;25997;50.214;19.354;2023-07-20T08:35:38;3.92;;;2.67;;
40284;SDS011;25997;50.214;19.354;2023-07-20T08:38:41;3.15;;;2.08;;
40284;SDS011;25997;50.214;19.354;2023-07-20T08:41:46;3.05;;;1.77;;
40284;SDS011;25997;50.214;19.354;2023-07-20T08:44:48;2.85;;;1.55;;
40284;SDS011;25997;50.214;19.354;2023-07-20T08:47:55;4.47;;;2.90;;
40284;SDS011;25997;50.214;19.354;2023-07-20T08:50:58;3.33;;;2.00;;
40284;SDS011;25997;50.214;19.354;2023-07-20T08:54:02;3.97;;;2.42;;
40284;SDS011;25997;50.214;19.354;2023-07-20T08:57:06;5.70;;;3.10;;
40284;SDS011;25997;50.214;19.354;2023-07-20T09:00:10;3.55;;;2.10;;
40284;SDS011;25997;50.214;19.354;2023-07-20T09:03:14;3.65;;;2.28;;
40284;SDS011;25997;50.214;19.354;2023-07-20T09:06:16;4.30;;;3.20;;
40284;SDS011;25997;50.214;19.354;2023-07-20T09:09:19;6.22;;;4.40;;
40284;SDS011;25997;50.214;19.354;2023-07-20T09:12:23;4.22;;;3.33;;
40284;SDS011;25997;50.214;19.354;2023-07-20T09:15:25;3.75;;;2.13;;
40284;SDS011;25997;50.214;19.354;2023-07-20T09:18:29;3.08;;;1.92;;
40284;SDS011;25997;50.214;19.354;2023-07-20T09:21:33;4.00;;;3.00;;
40284;SDS011;25997;50.214;19.354;2023-07-20T09:24:37;9.93;;;6.53;;
40284;SDS011;25997;50.214;19.354;2023-07-20T09:27:44;8.75;;;5.68;;
40284;SDS011;25997;50.214;19.354;2023-07-20T09:30:47;7.75;;;4.22;;
40284;SDS011;25997;50.214;19.354;2023-07-20T09:33:52;9.98;;;6.20;;
40284;SDS011;25997;50.214;19.354;2023-07-20T09:36:55;6.05;;;4.53;;
40284;SDS011;25997;50.214;19.354;2023-07-20T09:39:57;6.47;;;5.30;;
40284;SDS011;25997;50.214;19.354;2023-07-20T09:43:02;6.00;;;5.35;;
40284;SDS011;25997;50.214;19.354;2023-07-20T09:46:09;7.13;;;4.95;;
40284;SDS011;25997;50.214;19.354;2023-07-20T09:49:11;4.72;;;4.15;;
40284;SDS011;25997;50.214;19.354;2023-07-20T09:52:14;8.85;;;5.35;;
40284;SDS011;25997;50.214;19.354;2023-07-20T09:55:17;5.18;;;4.65;;
40284;SDS011;25997;50.214;19.354;2023-07-20T09:58:23;5.43;;;4.90;;
40284;SDS011;25997;50.214;19.354;2023-07-20T10:01:27;5.85;;;5.25;;
40284;SDS011;25997;50.214;19.354;2023-07-20T10:04:32;5.63;;;4.60;;
40284;SDS011;25997;50.214;19.354;2023-07-20T10:07:39;6.32;;;5.22;;
40284;SDS011;25997;50.214;19.354;2023-07-20T10:10:45;6.75;;;4.70;;
40284;SDS011;25997;50.214;19.354;2023-07-20T10:13:51;8.13;;;4.63;;
40284;SDS011;25997;50.214;19.354;2023-07-20T10:16:57;5.82;;;4.78;;
40284;SDS011;25997;50.214;19.354;2023-07-20T10:20:03;6.50;;;4.85;;
40284;SDS011;25997;50.214;19.354;2023-07-20T10:23:08;5.85;;;4.85;;
40284;SDS011;25997;50.214;19.354;2023-07-20T10:26:11;6.47;;;5.13;;
40284;SDS011;25997;50.214;19.354;2023-07-20T10:29:16;7.35;;;5.50;;
40284;SDS011;25997;50.214;19.354;2023-07-20T10:32:19;6.03;;;5.40;;
40284;SDS011;25997;50.214;19.354;2023-07-20T10:35:22;5.50;;;4.93;;
40284;SDS011;25997;50.214;19.354;2023-07-20T10:41:42;6.53;;;4.97;;
40284;SDS011;25997;50.214;19.354;2023-07-20T10:44:46;4.97;;;4.47;;
40284;SDS011;25997;50.214;19.354;2023-07-20T10:47:49;5.10;;;4.53;;
40284;SDS011;25997;50.214;19.354;2023-07-20T10:51:11;5.65;;;4.85;;
40284;SDS011;25997;50.214;19.354;2023-07-20T10:54:33;6.88;;;5.63;;
40284;SDS011;25997;50.214;19.354;2023-07-20T10:57:36;6.30;;;5.70;;
40284;SDS011;25997;50.214;19.354;2023-07-20T11:00:54;7.03;;;5.65;;
40284;SDS011;25997;50.214;19.354;2023-07-20T11:04:00;8.65;;;5.57;;
40284;SDS011;25997;50.214;19.354;2023-07-20T11:07:02;6.70;;;5.03;;
40284;SDS011;25997;50.214;19.354;2023-07-20T11:10:14;6.38;;;5.47;;
40284;SDS011;25997;50.214;19.354;2023-07-20T11:13:19;9.55;;;8.55;;
40284;SDS011;25997;50.214;19.354;2023-07-20T11:16:38;6.40;;;5.80;;
40284;SDS011;25997;50.214;19.354;2023-07-20T11:19:41;6.88;;;5.03;;
40284;SDS011;25997;50.214;19.354;2023-07-20T11:22:44;4.93;;;4.43;;
40284;SDS011;25997;50.214;19.354;2023-07-20T11:25:48;5.22;;;3.97;;
40284;SDS011;25997;50.214;19.354;2023-07-20T11:28:51;7.50;;;4.85;;
40284;SDS011;25997;50.214;19.354;2023-07-20T11:31:55;6.80;;;5.45;;
40284;SDS011;25997;50.214;19.354;2023-07-20T11:34:59;8.13;;;5.22;;
40284;SDS011;25997;50.214;19.354;2023-07-20T11:38:01;5.72;;;4.63;;
40284;SDS011;25997;50.214;19.354;2023-07-20T11:41:04;4.90;;;4.35;;
40284;SDS011;25997;50.214;19.354;2023-07-20T11:44:06;4.40;;;3.35;;
40284;SDS011;25997;50.214;19.354;2023-07-20T11:47:14;5.05;;;3.78;;
40284;SDS011;25997;50.214;19.354;2023-07-20T11:50:17;5.68;;;3.42;;
40284;SDS011;25997;50.214;19.354;2023-07-20T11:53:19;5.32;;;3.65;;
40284;SDS011;25997;50.214;19.354;2023-07-20T11:56:22;4.80;;;3.50;;
40284;SDS011;25997;50.214;19.354;2023-07-20T11:59:27;5.43;;;3.33;;
40284;SDS011;25997;50.214;19.354;2023-07-20T12:02:31;4.78;;;3.58;;
40284;SDS011;25997;50.214;19.354;2023-07-20T12:05:34;4.38;;;3.67;;
40284;SDS011;25997;50.214;19.354;2023-07-20T12:08:38;6.28;;;3.40;;
40284;SDS011;25997;50.214;19.354;2023-07-20T12:11:42;6.88;;;3.53;;
40284;SDS011;25997;50.214;19.354;2023-07-20T12:14:45;4.20;;;2.95;;
40284;SDS011;25997;50.214;19.354;2023-07-20T12:17:50;3.88;;;3.45;;
40284;SDS011;25997;50.214;19.354;2023-07-20T12:20:58;4.22;;;3.15;;
40284;SDS011;25997;50.214;19.354;2023-07-20T12:24:01;4.53;;;3.20;;
40284;SDS011;25997;50.214;19.354;2023-07-20T12:27:04;3.85;;;2.83;;
40284;SDS011;25997;50.214;19.354;2023-07-20T12:30:07;3.30;;;3.00;;
40284;SDS011;25997;50.214;19.354;2023-07-20T12:33:12;3.13;;;2.80;;
40284;SDS011;25997;50.214;19.354;2023-07-20T12:36:16;2.95;;;2.33;;
40284;SDS011;25997;50.214;19.354;2023-07-20T12:39:19;4.72;;;2.70;;
40284;SDS011;25997;50.214;19.354;2023-07-20T12:42:21;3.78;;;2.67;;
40284;SDS011;25997;50.214;19.354;2023-07-20T12:45:24;4.05;;;2.10;;
40284;SDS011;25997;50.214;19.354;2023-07-20T12:48:27;5.20;;;3.15;;
40284;SDS011;25997;50.214;19.354;2023-07-20T12:51:30;3.45;;;2.42;;
40284;SDS011;25997;50.214;19.354;2023-07-20T12:54:32;4.05;;;2.67;;
40284;SDS011;25997;50.214;19.354;2023-07-20T12:57:35;3.75;;;2.83;;
40284;SDS011;25997;50.214;19.354;2023-07-20T13:00:38;4.50;;;2.35;;
40284;SDS011;25997;50.214;19.354;2023-07-20T13:03:42;3.80;;;2.90;;
40284;SDS011;25997;50.214;19.354;2023-07-20T13:06:44;3.45;;;3.15;;
40284;SDS011;25997;50.214;19.354;2023-07-20T13:09:47;2.63;;;2.28;;
40284;SDS011;25997;50.214;19.354;2023-07-20T13:12:49;5.68;;;4.15;;
40284;SDS011;25997;50.214;19.354;2023-07-20T13:15:52;4.72;;;2.88;;
40284;SDS011;25997;50.214;19.354;2023-07-20T13:18:56;5.10;;;3.20;;
40284;SDS011;25997;50.214;19.354;2023-07-20T13:21:58;5.60;;;2.45;;
40284;SDS011;25997;50.214;19.354;2023-07-20T13:25:01;2.70;;;2.35;;
40284;SDS011;25997;50.214;19.354;2023-07-20T13:28:04;3.03;;;2.45;;
40284;SDS011;25997;50.214;19.354;2023-07-20T13:31:07;4.38;;;2.90;;
40284;SDS011;25997;50.214;19.354;2023-07-20T13:34:13;2.90;;;2.60;;
40284;SDS011;25997;50.214;19.354;2023-07-20T13:37:16;4.28;;;3.08;;
40284;SDS011;25997;50.214;19.354;2023-07-20T13:40:18;2.60;;;2.40;;
40284;SDS011;25997;50.214;19.354;2023-07-20T13:43:23;4.18;;;2.53;;
40284;SDS011;25997;50.214;19.354;2023-07-20T13:46:26;4.25;;;2.33;;
40284;SDS011;25997;50.214;19.354;2023-07-20T13:49:30;4.20;;;2.70;;
40284;SDS011;25997;50.214;19.354;2023-07-20T13:52:32;5.18;;;2.40;;
40284;SDS011;25997;50.214;19.354;2023-07-20T13:55:35;5.75;;;3.20;;
40284;SDS011;25997;50.214;19.354;2023-07-20T13:58:38;4.93;;;2.97;;
40284;SDS011;25997;50.214;19.354;2023-07-20T14:01:41;3.35;;;2.53;;
40284;SDS011;25997;50.214;19.354;2023-07-20T14:04:45;4.63;;;2.67;;
40284;SDS011;25997;50.214;19.354;2023-07-20T14:07:49;2.75;;;2.28;;
40284;SDS011;25997;50.214;19.354;2023-07-20T14:10:51;4.43;;;2.97;;
40284;SDS011;25997;50.214;19.354;2023-07-20T14:13:54;8.60;;;3.80;;
40284;SDS011;25997;50.214;19.354;2023-07-20T14:16:56;6.22;;;3.25;;
40284;SDS011;25997;50.214;19.354;2023-07-20T14:20:00;4.85;;;3.33;;
40284;SDS011;25997;50.214;19.354;2023-07-20T14:23:05;5.57;;;3.00;;
40284;SDS011;25997;50.214;19.354;2023-07-20T14:26:08;5.32;;;2.38;;
40284;SDS011;25997;50.214;19.354;2023-07-20T14:29:10;4.35;;;2.30;;
40284;SDS011;25997;50.214;19.354;2023-07-20T14:32:13;7.75;;;4.93;;
40284;SDS011;25997;50.214;19.354;2023-07-20T14:35:17;11.55;;;7.80;;
40284;SDS011;25997;50.214;19.354;2023-07-20T14:38:19;6.32;;;4.47;;
40284;SDS011;25997;50.214;19.354;2023-07-20T14:41:21;4.28;;;2.60;;
40284;SDS011;25997;50.214;19.354;2023-07-20T14:44:24;2.60;;;2.10;;
40284;SDS011;25997;50.214;19.354;2023-07-20T14:47:26;4.68;;;2.20;;
40284;SDS011;25997;50.214;19.354;2023-07-20T14:50:30;2.90;;;2.22;;
40284;SDS011;25997;50.214;19.354;2023-07-20T14:53:33;4.95;;;2.60;;
40284;SDS011;25997;50.214;19.354;2023-07-20T14:56:37;2.47;;;1.92;;
40284;SDS011;25997;50.214;19.354;2023-07-20T14:59:40;3.17;;;2.53;;
40284;SDS011;25997;50.214;19.354;2023-07-20T15:02:44;4.47;;;2.13;;
40284;SDS011;25997;50.214;19.354;2023-07-20T15:05:48;2.67;;;2.05;;
40284;SDS011;25997;50.214;19.354;2023-07-20T15:08:51;5.93;;;2.08;;
40284;SDS011;25997;50.214;19.354;2023-07-20T15:11:53;2.35;;;1.85;;
40284;SDS011;25997;50.214;19.354;2023-07-20T15:15:03;4.88;;;2.78;;
40284;SDS011;25997;50.214;19.354;2023-07-20T15:18:07;4.50;;;2.83;;
40284;SDS011;25997;50.214;19.354;2023-07-20T15:21:11;3.67;;;2.38;;
40284;SDS011;25997;50.214;19.354;2023-07-20T15:24:13;2.85;;;1.95;;
40284;SDS011;25997;50.214;19.354;2023-07-20T15:27:16;3.47;;;2.10;;
40284;SDS011;25997;50.214;19.354;2023-07-20T15:30:18;2.83;;;1.75;;
40284;SDS011;25997;50.214;19.354;2023-07-20T15:33:22;3.35;;;2.17;;
40284;SDS011;25997;50.214;19.354;2023-07-20T15:36:28;3.88;;;1.88;;
40284;SDS011;25997;50.214;19.354;2023-07-20T15:39:32;3.95;;;1.98;;
40284;SDS011;25997;50.214;19.354;2023-07-20T15:42:34;2.70;;;2.00;;
40284;SDS011;25997;50.214;19.354;2023-07-20T15:45:37;5.45;;;2.10;;
40284;SDS011;25997;50.214;19.354;2023-07-20T15:48:39;2.35;;;1.92;;
40284;SDS011;25997;50.214;19.354;2023-07-20T15:51:43;3.33;;;2.40;;
40284;SDS011;25997;50.214;19.354;2023-07-20T15:54:46;3.33;;;1.92;;
40284;SDS011;25997;50.214;19.354;2023-07-20T15:57:49;5.20;;;2.20;;
40284;SDS011;25997;50.214;19.354;2023-07-20T16:00:54;4.60;;;2.35;;
40284;SDS011;25997;50.214;19.354;2023-07-20T16:03:58;2.45;;;1.85;;
40284;SDS011;25997;50.214;19.354;2023-07-20T16:07:02;4.55;;;2.05;;
40284;SDS011;25997;50.214;19.354;2023-07-20T16:10:08;2.88;;;2.13;;
40284;SDS011;25997;50.214;19.354;2023-07-20T16:13:11;3.55;;;2.03;;
40284;SDS011;25997;50.214;19.354;2023-07-20T16:16:13;4.80;;;2.38;;
40284;SDS011;25997;50.214;19.354;2023-07-20T16:19:16;3.03;;;2.38;;
40284;SDS011;25997;50.214;19.354;2023-07-20T16:22:20;6.30;;;1.95;;
40284;SDS011;25997;50.214;19.354;2023-07-20T16:25:23;5.85;;;2.13;;
40284;SDS011;25997;50.214;19.354;2023-07-20T16:28:26;4.00;;;2.38;;
40284;SDS011;25997;50.214;19.354;2023-07-20T16:31:28;3.63;;;1.63;;
40284;SDS011;25997;50.214;19.354;2023-07-20T16:34:31;3.45;;;1.83;;
40284;SDS011;25997;50.214;19.354;2023-07-20T16:37:35;6.63;;;2.40;;
40284;SDS011;25997;50.214;19.354;2023-07-20T16:40:38;3.95;;;2.58;;
40284;SDS011;25997;50.214;19.354;2023-07-20T16:43:40;4.03;;;1.98;;
40284;SDS011;25997;50.214;19.354;2023-07-20T16:46:43;3.30;;;1.90;;
40284;SDS011;25997;50.214;19.354;2023-07-20T16:49:47;2.90;;;1.90;;
40284;SDS011;25997;50.214;19.354;2023-07-20T16:52:51;5.45;;;2.05;;
40284;SDS011;25997;50.214;19.354;2023-07-20T16:55:55;3.72;;;2.13;;
40284;SDS011;25997;50.214;19.354;2023-07-20T16:58:58;3.40;;;1.80;;
40284;SDS011;25997;50.214;19.354;2023-07-20T17:02:00;4.15;;;2.15;;
40284;SDS011;25997;50.214;19.354;2023-07-20T17:05:03;2.80;;;1.73;;
40284;SDS011;25997;50.214;19.354;2023-07-20T17:08:11;10.38;;;6.03;;
40284;SDS011;25997;50.214;19.354;2023-07-20T17:11:15;5.00;;;3.08;;
40284;SDS011;25997;50.214;19.354;2023-07-20T17:14:17;9.63;;;2.63;;
40284;SDS011;25997;50.214;19.354;2023-07-20T17:17:20;5.97;;;1.90;;
40284;SDS011;25997;50.214;19.354;2023-07-20T17:20:22;6.05;;;5.45;;
40284;SDS011;25997;50.214;19.354;2023-07-20T17:23:26;5.30;;;3.63;;
40284;SDS011;25997;50.214;19.354;2023-07-20T17:26:30;6.38;;;2.95;;
40284;SDS011;25997;50.214;19.354;2023-07-20T17:29:33;4.88;;;1.83;;
40284;SDS011;25997;50.214;19.354;2023-07-20T17:32:35;6.03;;;2.40;;
40284;SDS011;25997;50.214;19.354;2023-07-20T17:35:38;6.15;;;1.98;;
40284;SDS011;25997;50.214;19.354;2023-07-20T17:38:43;3.88;;;2.10;;
40284;SDS011;25997;50.214;19.354;2023-07-20T17:41:45;5.45;;;3.47;;
40284;SDS011;25997;50.214;19.354;2023-07-20T17:44:50;4.70;;;3.13;;
40284;SDS011;25997;50.214;19.354;2023-07-20T17:47:52;6.68;;;3.65;;
40284;SDS011;25997;50.214;19.354;2023-07-20T17:50:55;7.75;;;3.17;;
40284;SDS011;25997;50.214;19.354;2023-07-20T17:53:58;4.75;;;2.90;;
40284;SDS011;25997;50.214;19.354;2023-07-20T17:57:01;8.57;;;3.00;;
40284;SDS011;25997;50.214;19.354;2023-07-20T18:00:04;4.40;;;2.78;;
40284;SDS011;25997;50.214;19.354;2023-07-20T18:03:10;5.68;;;3.15;;
40284;SDS011;25997;50.214;19.354;2023-07-20T18:06:13;6.03;;;2.67;;
40284;SDS011;25997;50.214;19.354;2023-07-20T18:09:18;3.05;;;2.20;;
40284;SDS011;25997;50.214;19.354;2023-07-20T18:12:20;4.85;;;2.00;;
40284;SDS011;25997;50.214;19.354;2023-07-20T18:15:22;4.18;;;2.08;;